Time;durP1;ratioP1;P1;durP2;ratioP2;P2;SDS_P1;SDS_P2;PMS_P1;PMS_P2;Temp;Humidity;BMP_temperature;BMP_pressure;BME280_temperature;BME280_humidity;BME280_pressure;Samples;Min_cycle;Max_cycle;Signal;HPM_P1;HPM_P2
2022/11/02 00:02:18;;;;;;;0.80;0.80;;;;;;;13.63;80.06;99978.47;5049536;28;20200;-67
2022/11/02 00:04:45;;;;;;;1.00;1.00;;;;;;;13.57;80.46;99973.53;5050460;28;20745;-67
2022/11/02 00:07:13;;;;;;;0.50;0.50;;;;;;;13.58;79.91;99972.66;5050503;28;20270;-67
2022/11/02 00:09:40;;;;;;;0.50;0.50;;;;;;;13.54;79.97;99976.22;5049419;28;20224;-67
2022/11/02 00:12:07;;;;;;;0.80;0.80;;;;;;;13.55;80.20;99985.63;5050222;28;20212;-67
2022/11/02 00:14:34;;;;;;;0.60;0.60;;;;;;;13.55;79.99;99982.22;5050631;28;20716;-67
2022/11/02 00:17:01;;;;;;;0.70;0.70;;;;;;;13.54;80.09;99978.78;5050158;28;20193;-67
2022/11/02 00:19:29;;;;;;;0.70;0.70;;;;;;;13.50;80.54;99974.66;5049789;28;20676;-67
2022/11/02 00:21:57;;;;;;;0.50;0.50;;;;;;;13.46;80.53;99970.50;5049966;28;20208;-67
2022/11/02 00:24:25;;;;;;;0.60;0.60;;;;;;;13.47;80.44;99973.91;5050465;28;20224;-67
2022/11/02 00:26:54;;;;;;;0.50;0.50;;;;;;;13.46;80.67;99973.06;5050715;28;20212;-67
2022/11/02 00:29:23;;;;;;;0.70;0.70;;;;;;;13.46;80.78;99967.91;5050160;28;20220;-67
2022/11/02 00:31:50;;;;;;;0.60;0.60;;;;;;;13.43;81.09;99973.16;5050614;28;20580;-67
2022/11/02 00:34:16;;;;;;;0.60;0.60;;;;;;;13.42;81.08;99968.06;5049782;28;20193;-66
2022/11/02 00:36:43;;;;;;;0.50;0.50;;;;;;;13.40;80.72;99968.13;5050555;28;20730;-67
2022/11/02 00:39:10;;;;;;;0.60;0.60;;;;;;;13.39;80.54;99974.16;5049593;28;20193;-67
2022/11/02 00:41:38;;;;;;;0.60;0.60;;;;;;;13.38;81.07;99972.47;5050089;28;20197;-67
2022/11/02 00:44:05;;;;;;;0.50;0.50;;;;;;;13.39;80.79;99963.00;5049951;28;20200;-67
2022/11/02 00:46:32;;;;;;;0.50;0.50;;;;;;;13.37;80.34;99964.81;5047934;28;20205;-67
2022/11/02 00:48:58;;;;;;;24.13;1.17;;;;;;;13.30;80.36;99964.16;5048906;28;20227;-67
2022/11/02 00:51:25;;;;;;;0.70;0.70;;;;;;;13.24;80.56;99972.06;5049272;28;20209;-67
2022/11/02 00:53:52;;;;;;;1.20;1.20;;;;;;;13.15;81.39;99964.63;5049888;28;20197;-67
2022/11/02 00:56:19;;;;;;;0.70;0.70;;;;;;;13.06;81.65;99975.19;5049397;28;20208;-68
2022/11/02 00:58:47;;;;;;;0.60;0.60;;;;;;;13.07;82.02;99966.56;5050124;28;20578;-67
2022/11/02 01:01:14;;;;;;;0.50;0.50;;;;;;;13.08;81.35;99974.28;5049244;28;20196;-67
2022/11/02 01:03:41;;;;;;;0.73;0.73;;;;;;;12.99;80.88;99964.22;5049946;28;20334;-67
2022/11/02 01:06:09;;;;;;;0.40;0.40;;;;;;;12.97;81.43;99960.03;5050194;28;20201;-66
2022/11/02 01:08:36;;;;;;;0.80;0.80;;;;;;;12.97;81.54;99957.44;5049497;28;20712;-66
2022/11/02 01:11:10;;;;;;;0.53;0.53;;;;;;;12.96;81.25;99953.19;5049566;28;20246;-67
2022/11/02 01:13:37;;;;;;;0.70;0.70;;;;;;;12.97;81.28;99954.88;5049124;28;20558;-67
2022/11/02 01:16:06;;;;;;;0.97;0.97;;;;;;;12.91;81.28;99940.47;5049681;28;20200;-67
2022/11/02 01:18:33;;;;;;;0.70;0.70;;;;;;;12.92;81.02;99943.91;5048753;28;20212;-67
2022/11/02 01:21:00;;;;;;;0.73;0.73;;;;;;;12.89;81.06;99944.00;5049548;28;20326;-67
2022/11/02 01:23:27;;;;;;;0.57;0.57;;;;;;;12.79;81.56;99940.03;5048935;28;20196;-67
2022/11/02 01:25:54;;;;;;;0.70;0.70;;;;;;;12.73;82.18;99950.50;5049696;28;20193;-67
2022/11/02 01:28:20;;;;;;;0.60;0.60;;;;;;;12.69;82.37;99943.75;5049380;28;20228;-67
2022/11/02 01:30:47;;;;;;;0.50;0.50;;;;;;;12.63;82.26;99943.03;5049402;28;20201;-67
2022/11/02 01:33:16;;;;;;;0.50;0.50;;;;;;;12.62;82.26;99943.94;5049514;28;20196;-67
2022/11/02 01:35:44;;;;;;;0.60;0.60;;;;;;;12.56;82.31;99938.97;5049523;28;20657;-67
2022/11/02 01:38:10;;;;;;;0.60;0.60;;;;;;;12.56;81.63;99938.13;5049260;28;20201;-66
2022/11/02 01:40:38;;;;;;;0.50;0.50;;;;;;;12.51;81.58;99935.69;5049059;28;20208;-67
2022/11/02 01:43:22;;;;;;;0.60;0.60;;;;;;;12.49;82.00;99932.31;5048183;28;20295;-66
2022/11/02 01:45:52;;;;;;;0.70;0.70;;;;;;;12.44;82.21;99935.94;5047734;28;20741;-67
2022/11/02 01:48:28;;;;;;;0.73;0.73;;;;;;;12.40;82.78;99940.31;5048286;28;20612;-67
2022/11/02 01:50:55;;;;;;;0.67;0.67;;;;;;;12.40;82.50;99930.03;5049203;28;20200;-66
2022/11/02 01:53:23;;;;;;;0.50;0.50;;;;;;;12.40;82.54;99932.59;5048972;28;20213;-67
2022/11/02 01:55:50;;;;;;;0.60;0.60;;;;;;;12.35;82.61;99931.88;5049444;28;20205;-66
2022/11/02 01:58:17;;;;;;;0.53;0.53;;;;;;;12.31;82.46;99930.28;5049047;28;20208;-66
2022/11/02 02:00:44;;;;;;;0.60;0.60;;;;;;;12.26;82.49;99929.56;5049458;28;20200;-66
2022/11/02 02:03:15;;;;;;;0.80;0.80;;;;;;;12.14;82.59;99935.06;5047905;28;20207;-66
2022/11/02 02:05:46;;;;;;;0.53;0.53;;;;;;;12.05;82.57;99925.06;5045475;28;20250;-67
2022/11/02 02:08:17;;;;;;;0.57;0.57;;;;;;;12.05;82.85;99937.91;5051402;28;20208;-67
2022/11/02 02:10:44;;;;;;;0.70;0.70;;;;;;;11.90;82.94;99920.31;5050147;28;20623;-67
2022/11/02 02:13:13;;;;;;;0.50;0.50;;;;;;;11.92;83.14;99934.78;5052681;28;20205;-67
2022/11/02 02:15:49;;;;;;;0.60;0.60;;;;;;;11.94;82.76;99932.19;5052126;28;20251;-66
2022/11/02 02:18:23;;;;;;;0.50;0.50;;;;;;;11.87;83.25;99933.25;5052438;28;20600;-67
2022/11/02 02:21:11;;;;;;;0.50;0.50;;;;;;;11.88;83.22;99927.22;5049458;28;20207;-67
2022/11/02 02:23:55;;;;;;;0.50;0.50;;;;;;;11.87;82.61;99926.38;5053060;28;20192;-67
2022/11/02 02:26:50;;;;;;;0.60;0.60;;;;;;;11.87;83.32;99920.41;5052543;28;20231;-67
2022/11/02 02:29:22;;;;;;;0.50;0.50;;;;;;;11.82;82.66;99927.41;5052129;28;20220;-67
2022/11/02 02:31:56;;;;;;;0.60;0.60;;;;;;;11.74;83.27;99919.03;5052797;28;20204;-67
2022/11/02 02:34:28;;;;;;;0.80;0.80;;;;;;;11.71;83.30;99916.56;5052210;28;20197;-67
2022/11/02 02:37:01;;;;;;;0.50;0.50;;;;;;;11.65;83.20;99911.53;5052625;28;20607;-67
2022/11/02 02:39:34;;;;;;;0.77;0.77;;;;;;;11.65;83.30;99919.25;5052114;28;20193;-67
2022/11/02 02:42:08;;;;;;;0.60;0.60;;;;;;;11.58;83.47;99929.69;5051616;28;20196;-67
2022/11/02 02:44:40;;;;;;;2.80;2.70;;;;;;;11.52;83.30;99924.72;5050899;28;20613;-67
2022/11/02 02:47:12;;;;;;;0.50;0.50;;;;;;;11.51;83.93;99935.84;5047744;28;20211;-67
2022/11/02 02:49:45;;;;;;;0.77;0.77;;;;;;;11.45;83.93;99933.44;5051577;28;20251;-67
2022/11/02 02:52:13;;;;;;;0.50;0.50;;;;;;;11.39;83.77;99931.03;5051945;28;20211;-67
2022/11/02 02:54:44;;;;;;;0.60;0.60;;;;;;;11.38;84.03;99936.19;5051627;28;20215;-67
2022/11/02 02:57:14;;;;;;;1.00;1.00;;;;;;;11.25;84.27;99922.81;5052187;28;20207;-67
2022/11/02 02:59:44;;;;;;;0.53;0.53;;;;;;;11.27;84.36;99933.06;5051196;28;20205;-67
2022/11/02 03:02:16;;;;;;;0.60;0.60;;;;;;;11.24;84.67;99928.84;5051955;28;20208;-67
2022/11/02 03:04:43;;;;;;;0.70;0.70;;;;;;;11.26;84.26;99932.22;5051095;28;20203;-67
2022/11/02 03:07:13;;;;;;;0.97;0.97;;;;;;;11.18;84.81;99918.72;5051952;28;20208;-67
2022/11/02 03:09:42;;;;;;;0.50;0.50;;;;;;;11.11;84.87;99927.47;5051203;28;22389;-67
2022/11/02 03:12:21;;;;;;;1.73;1.63;;;;;;;11.10;84.64;99920.63;5051617;28;20201;-67
2022/11/02 03:15:03;;;;;;;0.73;0.73;;;;;;;10.96;84.70;99915.81;5050241;28;20570;-67
2022/11/02 03:17:36;;;;;;;0.77;0.77;;;;;;;10.92;84.78;99915.94;5051217;28;20566;-67
2022/11/02 03:20:11;;;;;;;0.60;0.60;;;;;;;10.86;84.80;99921.19;5051662;28;20208;-67
2022/11/02 03:22:51;;;;;;;0.50;0.50;;;;;;;10.80;85.32;99918.78;5051365;28;20211;-67
2022/11/02 03:25:24;;;;;;;0.60;0.60;;;;;;;10.84;85.71;99907.59;5051840;28;20262;-67
2022/11/02 03:27:56;;;;;;;0.67;0.67;;;;;;;10.89;85.50;99914.28;5050583;28;20212;-67
2022/11/02 03:30:28;;;;;;;0.70;0.70;;;;;;;10.78;85.76;99907.72;5051129;28;20208;-67
2022/11/02 03:33:01;;;;;;;0.57;0.57;;;;;;;10.83;85.72;99916.16;5051604;28;20204;-67
2022/11/02 03:35:34;;;;;;;0.80;0.80;;;;;;;10.77;86.41;99916.28;5051031;28;20573;-67
2022/11/02 03:38:05;;;;;;;0.50;0.50;;;;;;;10.52;85.99;99870.69;5050643;28;20668;-67
2022/11/02 03:40:38;;;;;;;0.60;0.60;;;;;;;10.76;86.58;99922.31;5049194;28;20204;-68
2022/11/02 03:43:06;;;;;;;0.50;0.50;;;;;;;10.77;86.36;99906.03;5050249;28;20220;-67
2022/11/02 03:45:38;;;;;;;0.60;0.60;;;;;;;10.75;86.32;99910.34;5051193;28;20247;-67
2022/11/02 03:48:07;;;;;;;0.50;0.50;;;;;;;10.72;86.47;99913.00;5051170;28;20738;-66
2022/11/02 03:50:38;;;;;;;0.63;0.63;;;;;;;10.37;87.28;99890.69;5050849;28;20212;-71
2022/11/02 03:53:10;;;;;;;0.60;0.60;;;;;;;10.56;87.19;99916.78;5050846;28;20196;-71
2022/11/02 03:55:41;;;;;;;0.63;0.63;;;;;;;10.61;86.75;99909.81;5050942;28;20262;-71
2022/11/02 03:58:11;;;;;;;0.70;0.70;;;;;;;10.57;86.81;99918.44;5050803;28;20270;-71
2022/11/02 04:00:48;;;;;;;0.63;0.63;;;;;;;10.55;87.58;99915.94;5051054;28;20288;-71
2022/11/02 04:03:15;;;;;;;10.03;3.83;;;;;;;10.55;87.16;99915.94;5050750;28;20200;-71
2022/11/02 04:05:41;;;;;;;0.60;0.60;;;;;;;10.56;87.35;99924.47;5050895;28;20200;-71
2022/11/02 04:08:23;;;;;;;0.87;0.87;;;;;;;10.50;87.18;99917.75;5049508;28;20207;-71
2022/11/02 04:16:22;;;;;;;0.67;0.67;;;;;;;10.43;86.72;99918.75;5050218;28;20583;-71
2022/11/02 04:21:33;;;;;;;0.60;0.60;;;;;;;10.40;87.50;99919.66;5049624;28;20292;-71
2022/11/02 04:26:44;;;;;;;0.70;0.70;;;;;;;10.42;88.02;99915.34;5049069;28;20577;-71
2022/11/02 04:29:11;;;;;;;0.60;0.60;;;;;;;10.43;88.32;99914.50;5049415;28;20225;-71
2022/11/02 04:31:39;;;;;;;0.50;0.50;;;;;;;10.42;88.28;99910.22;5050243;28;20205;-72
2022/11/02 04:34:05;;;;;;;0.87;0.87;;;;;;;10.41;88.00;99908.53;5049911;28;20220;-70
2022/11/02 04:36:32;;;;;;;0.70;0.70;;;;;;;10.42;87.76;99910.22;5049734;28;20193;-71
2022/11/02 04:38:58;;;;;;;0.60;0.60;;;;;;;10.42;87.36;99905.09;5049195;28;20229;-72
2022/11/02 04:41:44;;;;;;;1.10;1.10;;;;;;;10.44;87.14;99912.75;5049421;28;20204;-71
2022/11/02 04:44:13;;;;;;;0.60;0.60;;;;;;;10.43;87.74;99911.91;5049546;28;20205;-71
2022/11/02 04:46:42;;;;;;;0.70;0.70;;;;;;;10.37;87.34;99916.34;5050192;28;20230;-71
2022/11/02 04:49:11;;;;;;;0.40;0.40;;;;;;;10.39;87.37;99907.72;5048512;28;20213;-71
2022/11/02 04:51:39;;;;;;;0.73;0.73;;;;;;;10.39;87.63;99906.88;5049835;28;20201;-71
2022/11/02 04:54:06;;;;;;;0.60;0.60;;;;;;;10.40;87.67;99916.28;5049767;28;20676;-71
2022/11/02 04:56:32;;;;;;;0.50;0.50;;;;;;;10.41;87.35;99918.78;5048643;28;20665;-71
2022/11/02 04:59:00;;;;;;;0.50;0.50;;;;;;;10.44;87.25;99918.72;5049978;28;20196;-71
2022/11/02 05:01:29;;;;;;;0.50;0.50;;;;;;;10.45;87.28;99906.75;5049109;28;20201;-71
2022/11/02 05:03:57;;;;;;;0.60;0.60;;;;;;;10.46;87.19;99913.56;5047457;28;20222;-71
2022/11/02 05:06:24;;;;;;;0.67;0.67;;;;;;;10.42;86.79;99912.78;5048815;28;20201;-70
2022/11/02 05:08:51;;;;;;;0.67;0.67;;;;;;;10.41;87.11;99923.91;5049595;28;20665;-71
2022/11/02 05:11:18;;;;;;;0.60;0.60;;;;;;;10.40;87.36;99922.22;5049439;28;20224;-71
2022/11/02 05:13:45;;;;;;;0.60;0.60;;;;;;;10.40;86.76;99911.13;5049253;28;20613;-71
2022/11/02 05:16:13;;;;;;;0.40;0.40;;;;;;;10.39;86.98;99917.97;5049661;28;20197;-71
2022/11/02 05:18:40;;;;;;;0.63;0.63;;;;;;;10.38;87.09;99918.84;5049934;28;20656;-71
2022/11/02 05:21:10;;;;;;;0.60;0.60;;;;;;;10.40;86.73;99921.38;5045502;28;20204;-71
2022/11/02 05:23:37;;;;;;;1.07;1.07;;;;;;;10.40;86.54;99922.22;5045822;28;20463;-71
2022/11/02 05:26:06;;;;;;;0.50;0.50;;;;;;;10.43;86.92;99916.19;5042266;28;20204;-72
2022/11/02 05:28:33;;;;;;;0.60;0.60;;;;;;;10.42;86.81;99925.59;5045632;28;20205;-72
2022/11/02 05:31:01;;;;;;;0.83;0.83;;;;;;;10.40;87.09;99927.34;5047913;28;20250;-71
2022/11/02 05:33:29;;;;;;;0.60;0.60;;;;;;;10.41;87.71;99925.63;5048176;28;20205;-71
2022/11/02 05:35:57;;;;;;;0.57;0.57;;;;;;;10.43;87.49;99924.75;5049112;28;20209;-71
2022/11/02 05:38:26;;;;;;;0.70;0.70;;;;;;;10.44;87.59;99923.00;5048378;28;20688;-71
2022/11/02 05:40:53;;;;;;;0.67;0.67;;;;;;;10.49;87.87;99924.59;5050874;28;20201;-71
2022/11/02 05:43:20;;;;;;;0.50;0.50;;;;;;;10.49;87.90;99931.44;5053205;28;20196;-71
2022/11/02 05:45:52;;;;;;;0.57;0.57;;;;;;;10.52;88.15;99932.22;5052462;28;20193;-71
2022/11/02 05:48:18;;;;;;;0.93;0.93;;;;;;;10.57;87.87;99929.53;5053492;28;20211;-71
2022/11/02 05:50:45;;;;;;;0.80;0.80;;;;;;;10.60;88.03;99938.91;5052827;28;20212;-71
2022/11/02 05:53:12;;;;;;;0.50;0.50;;;;;;;10.66;88.03;99938.78;5052599;28;20200;-71
2022/11/02 05:55:40;;;;;;;0.60;0.60;;;;;;;10.67;88.20;99943.00;5053173;28;20193;-71
2022/11/02 05:58:07;;;;;;;0.60;0.60;;;;;;;10.64;89.11;99937.94;5052843;28;21579;-70
2022/11/02 06:00:34;;;;;;;0.50;0.50;;;;;;;10.67;89.05;99946.41;5053194;28;20719;-71
2022/11/02 06:03:01;;;;;;;0.50;0.50;;;;;;;10.66;89.35;99934.50;5053044;28;20207;-70
2022/11/02 06:05:27;;;;;;;0.60;0.60;;;;;;;10.68;89.90;99939.56;5053378;28;20204;-71
2022/11/02 06:07:58;;;;;;;0.57;0.57;;;;;;;10.48;89.70;99899.00;5049771;28;20208;-71
2022/11/02 06:10:25;;;;;;;0.53;0.53;;;;;;;10.76;90.00;99938.53;5052464;28;20216;-71
2022/11/02 06:12:56;;;;;;;0.70;0.70;;;;;;;10.80;91.47;99941.84;5052972;28;20212;-71
2022/11/02 06:15:23;;;;;;;0.50;0.50;;;;;;;10.81;91.99;99938.44;5051994;28;20251;-71
2022/11/02 06:17:51;;;;;;;0.60;0.60;;;;;;;10.92;92.90;99941.59;5052065;28;20207;-71
2022/11/02 06:20:18;;;;;;;0.50;0.50;;;;;;;10.98;93.61;99934.63;5048619;28;20236;-69
2022/11/02 06:22:46;;;;;;;0.50;0.50;;;;;;;10.88;93.42;99916.91;5051418;28;20197;-69
2022/11/02 06:25:13;;;;;;;0.50;0.50;;;;;;;11.00;94.78;99944.81;5048529;28;20212;-69
2022/11/02 06:27:41;;;;;;;0.70;0.70;;;;;;;11.10;95.05;99940.31;5051193;28;20607;-69
2022/11/02 06:30:10;;;;;;;0.67;0.67;;;;;;;11.09;95.63;99944.59;5049371;28;20346;-69
2022/11/02 06:32:37;;;;;;;0.70;0.70;;;;;;;11.06;95.41;99939.53;5050419;28;20208;-69
2022/11/02 06:35:05;;;;;;;0.50;0.50;;;;;;;11.00;95.66;99924.31;5050474;28;20197;-69
2022/11/02 06:37:34;;;;;;;0.60;0.60;;;;;;;11.21;95.28;99944.31;5048937;28;20197;-70
2022/11/02 06:40:01;;;;;;;0.90;0.90;;;;;;;11.33;95.03;99941.47;5049669;28;20300;-69
2022/11/02 06:42:28;;;;;;;0.60;0.60;;;;;;;11.42;95.68;99938.66;5050855;28;20208;-69
2022/11/02 06:45:01;;;;;;;0.57;0.57;;;;;;;11.47;97.40;99936.81;5049286;28;20202;-70
2022/11/02 06:47:32;;;;;;;0.50;0.50;;;;;;;11.63;98.02;99932.16;5050234;28;20208;-69
2022/11/02 06:49:58;;;;;;;0.60;0.60;;;;;;;11.71;98.55;99935.38;5050292;28;20312;-69
2022/11/02 06:52:25;;;;;;;0.90;0.90;;;;;;;11.81;98.24;99930.84;5050221;28;20209;-69
2022/11/02 06:54:52;;;;;;;0.40;0.40;;;;;;;11.93;99.09;99935.63;5050657;28;20200;-69
2022/11/02 06:57:19;;;;;;;0.90;0.90;;;;;;;12.14;98.48;99935.06;5049776;28;20201;-69
2022/11/02 06:59:46;;;;;;;0.60;0.60;;;;;;;12.24;98.19;99940.78;5047743;28;20204;-72
2022/11/02 07:02:13;;;;;;;0.70;0.70;;;;;;;12.37;98.58;99927.56;5049191;28;20201;-70
2022/11/02 07:04:42;;;;;;;0.70;0.70;;;;;;;12.47;98.10;99926.38;5050341;28;20205;-71
2022/11/02 07:07:09;;;;;;;0.60;0.60;;;;;;;12.68;97.24;99936.91;5049674;28;20212;-70
2022/11/02 07:09:36;;;;;;;0.60;0.60;;;;;;;12.80;96.85;99936.53;5049482;28;20270;-68
2022/11/02 07:12:03;;;;;;;0.43;0.43;;;;;;;12.89;96.48;99936.28;5050295;28;20262;-68
2022/11/02 07:14:30;;;;;;;0.50;0.50;;;;;;;12.99;96.02;99929.91;5051035;28;20588;-68
2022/11/02 07:16:57;;;;;;;0.77;0.77;;;;;;;13.14;95.45;99921.78;5050723;28;20220;-67
2022/11/02 07:19:24;;;;;;;1.23;1.13;;;;;;;13.29;95.13;99915.25;5050963;28;20216;-68
2022/11/02 07:21:52;;;;;;;0.53;0.53;;;;;;;13.46;93.68;99918.97;5051546;28;20250;-68
2022/11/02 07:24:19;;;;;;;0.47;0.47;;;;;;;13.58;92.34;99903.09;5046404;28;20596;-68
2022/11/02 07:26:48;;;;;;;0.40;0.40;;;;;;;13.84;91.82;99911.66;5048736;28;20212;-68
2022/11/02 07:29:15;;;;;;;0.93;0.90;;;;;;;13.98;90.07;99899.13;5047976;28;20193;-68
2022/11/02 07:31:42;;;;;;;0.60;0.60;;;;;;;14.38;88.27;99906.28;5050340;28;20229;-67
2022/11/02 07:34:09;;;;;;;0.50;0.50;;;;;;;14.57;86.22;99912.44;5050560;28;20201;-68
2022/11/02 07:36:36;;;;;;;0.77;0.77;;;;;;;14.90;83.61;99902.50;5051260;28;20205;-68
2022/11/02 07:39:05;;;;;;;1.00;1.00;;;;;;;15.10;82.61;99907.72;5050867;28;20205;-68
2022/11/02 07:41:32;;;;;;;0.57;0.57;;;;;;;15.35;80.20;99900.63;5049612;28;20201;-68
2022/11/02 07:43:59;;;;;;;0.60;0.60;;;;;;;15.61;79.03;99897.84;5050954;28;20781;-67
2022/11/02 07:46:26;;;;;;;0.63;0.63;;;;;;;15.88;78.29;99897.53;5049710;28;20207;-67
2022/11/02 07:48:53;;;;;;;0.70;0.70;;;;;;;16.15;75.11;99894.59;5050886;28;20208;-67
2022/11/02 07:51:20;;;;;;;0.50;0.50;;;;;;;16.38;74.44;99893.53;5050829;28;20310;-68
2022/11/02 07:53:47;;;;;;;0.50;0.50;;;;;;;16.66;72.12;99887.94;5051271;28;20208;-68
2022/11/02 07:56:15;;;;;;;0.70;0.70;;;;;;;16.90;70.71;99881.59;5049547;28;20208;-68
2022/11/02 07:58:41;;;;;;;0.60;0.60;;;;;;;17.11;71.52;99879.72;5045012;28;20634;-67
2022/11/02 08:01:08;;;;;;;0.57;0.57;;;;;;;17.27;70.74;99878.03;5046932;28;20606;-68
2022/11/02 08:03:35;;;;;;;0.60;0.60;;;;;;;17.55;68.03;99880.94;5046155;28;20201;-68
2022/11/02 08:06:02;;;;;;;0.50;0.50;;;;;;;17.76;67.53;99876.44;5046813;28;20205;-68
2022/11/02 08:08:29;;;;;;;0.70;0.70;;;;;;;17.94;66.94;99872.00;5047907;28;20250;-68
2022/11/02 08:11:04;;;;;;;0.70;0.70;;;;;;;18.17;65.56;99874.22;5050404;28;20216;-68
2022/11/02 08:13:33;;;;;;;0.60;0.60;;;;;;;18.25;65.76;99866.88;5047309;28;20250;-68
2022/11/02 08:16:00;;;;;;;0.50;0.50;;;;;;;18.46;65.23;99870.91;5050322;28;20201;-68
2022/11/02 08:18:29;;;;;;;0.50;0.50;;;;;;;18.58;65.06;99867.66;5049389;28;20200;-68
2022/11/02 08:20:57;;;;;;;0.60;0.60;;;;;;;18.75;64.60;99866.72;5049222;28;20251;-68
2022/11/02 08:23:25;;;;;;;0.57;0.57;;;;;;;18.90;64.58;99854.63;5049245;28;20208;-68
2022/11/02 08:25:53;;;;;;;0.70;0.70;;;;;;;19.02;64.40;99846.97;5049060;28;20197;-68
2022/11/02 08:28:22;;;;;;;1.03;0.70;;;;;;;19.19;63.69;99843.41;5050689;28;20208;-68
2022/11/02 08:30:51;;;;;;;0.60;0.60;;;;;;;19.26;64.16;99836.91;5045648;28;20271;-67
2022/11/02 08:33:19;;;;;;;0.40;0.40;;;;;;;19.54;62.58;99851.75;5046685;28;20208;-67
2022/11/02 08:35:47;;;;;;;0.40;0.40;;;;;;;19.67;62.29;99843.13;5050293;28;20201;-67
2022/11/02 08:38:14;;;;;;;0.43;0.43;;;;;;;19.76;61.98;99842.56;5050259;28;20214;-67
2022/11/02 08:40:41;;;;;;;0.40;0.40;;;;;;;19.90;62.26;99845.13;5050720;28;20284;-67
2022/11/02 08:43:10;;;;;;;0.30;0.30;;;;;;;19.99;62.83;99837.72;5046957;28;20206;-70
2022/11/02 08:45:38;;;;;;;0.30;0.30;;;;;;;20.29;60.18;99839.25;5037093;28;20206;-68
2022/11/02 08:48:07;;;;;;;0.50;0.50;;;;;;;20.38;59.38;99835.25;5037436;28;20202;-68
2022/11/02 08:50:34;;;;;;;0.70;0.70;;;;;;;20.55;58.18;99831.59;5048751;28;20638;-67
2022/11/02 08:53:01;;;;;;;0.50;0.50;;;;;;;20.65;58.89;99830.88;5050188;28;20214;-67
2022/11/02 08:55:28;;;;;;;0.40;0.40;;;;;;;20.85;56.68;99835.63;5049714;28;20198;-67
2022/11/02 08:57:56;;;;;;;0.40;0.40;;;;;;;20.96;56.80;99827.13;5052922;28;20608;-67
2022/11/02 09:00:25;;;;;;;0.43;0.43;;;;;;;21.17;55.92;99817.91;5050549;28;20215;-69
2022/11/02 09:03:00;;;;;;;0.50;0.50;;;;;;;21.28;57.19;99811.97;5050581;28;20205;-69
2022/11/02 09:05:29;;;;;;;0.50;0.50;;;;;;;21.39;54.23;99814.66;5047796;28;20298;-68
2022/11/02 09:07:58;;;;;;;0.40;0.40;;;;;;;21.48;54.68;99813.22;5047167;28;20209;-69
2022/11/02 09:10:25;;;;;;;0.40;0.40;;;;;;;21.63;52.40;99809.56;5048055;28;20322;-68
2022/11/02 09:12:52;;;;;;;0.50;0.50;;;;;;;21.79;53.55;99797.94;5046304;28;20208;-70
2022/11/02 09:15:19;;;;;;;0.43;0.43;;;;;;;21.89;52.37;99793.78;5047166;28;20232;-70
2022/11/02 09:17:47;;;;;;;0.50;0.50;;;;;;;21.99;52.05;99788.75;5047971;28;20243;-69
2022/11/02 09:20:16;;;;;;;1.23;0.50;;;;;;;22.10;49.78;99774.94;5048620;28;20287;-69
2022/11/02 09:22:45;;;;;;;0.53;0.53;;;;;;;22.28;49.76;99784.06;5049596;28;20569;-69
2022/11/02 09:25:13;;;;;;;0.40;0.40;;;;;;;22.40;48.67;99783.16;5049232;28;20200;-70
2022/11/02 09:27:40;;;;;;;0.30;0.30;;;;;;;22.54;48.93;99769.94;5046779;28;20254;-69
2022/11/02 09:30:08;;;;;;;0.40;0.40;;;;;;;22.69;49.37;99774.06;5048387;28;20207;-70
2022/11/02 09:32:35;;;;;;;0.83;0.83;;;;;;;22.76;49.23;99763.97;5048552;28;20208;-69
2022/11/02 09:35:04;;;;;;;0.30;0.30;;;;;;;22.90;48.85;99762.00;5048000;28;20211;-70
2022/11/02 09:37:32;;;;;;;0.33;0.33;;;;;;;23.02;48.41;99761.09;5048416;28;20200;-70
2022/11/02 09:40:00;;;;;;;0.20;0.20;;;;;;;23.08;48.79;99748.47;5049246;28;20196;-70
2022/11/02 09:42:35;;;;;;;0.40;0.40;;;;;;;23.33;47.77;99753.50;5049494;28;20201;-70
2022/11/02 09:45:06;;;;;;;0.63;0.63;;;;;;;23.60;46.99;99753.19;5048153;28;20218;-70
2022/11/02 09:47:42;;;;;;;0.67;0.67;;;;;;;23.75;46.57;99744.94;5046737;28;20739;-69
2022/11/02 09:50:15;;;;;;;0.30;0.30;;;;;;;23.90;46.44;99749.00;5043664;28;20223;-69
2022/11/02 09:52:46;;;;;;;0.30;0.30;;;;;;;24.03;44.66;99739.19;5047864;28;20201;-69
2022/11/02 09:55:19;;;;;;;0.20;0.20;;;;;;;24.13;44.46;99734.09;5048381;28;20204;-69
2022/11/02 09:57:51;;;;;;;0.30;0.30;;;;;;;24.32;43.89;99733.41;5048449;28;20275;-69
2022/11/02 10:00:18;;;;;;;0.23;0.23;;;;;;;24.61;41.99;99726.63;5048411;28;20205;-69
2022/11/02 10:02:55;;;;;;;0.30;0.30;;;;;;;24.72;42.27;99726.53;5049366;28;20627;-69
2022/11/02 10:05:33;;;;;;;1.87;1.73;;;;;;;25.00;40.91;99728.56;5046786;28;20549;-69
2022/11/02 10:08:23;;;;;;;0.20;0.20;;;;;;;25.08;40.35;99720.88;5043589;28;20201;-69
2022/11/02 10:10:59;;;;;;;0.37;0.37;;;;;;;25.11;40.67;99716.31;5046184;28;20221;-69
2022/11/02 10:13:44;;;;;;;0.30;0.30;;;;;;;25.29;38.69;99714.75;5047049;28;20212;-69
2022/11/02 10:16:15;;;;;;;0.30;0.30;;;;;;;25.42;38.54;99712.75;5045696;28;20209;-69
2022/11/02 10:18:48;;;;;;;0.30;0.30;;;;;;;25.69;37.86;99709.53;5045067;28;20213;-69
2022/11/02 10:21:19;;;;;;;0.20;0.20;;;;;;;25.81;36.91;99695.31;5044369;28;20219;-70
2022/11/02 10:23:51;;;;;;;0.20;0.20;;;;;;;26.03;36.27;99697.72;5048084;28;20673;-69
2022/11/02 10:26:23;;;;;;;0.40;0.40;;;;;;;26.18;36.41;99690.25;5046095;28;20235;-69
2022/11/02 10:28:57;;;;;;;0.33;0.33;;;;;;;26.31;36.26;99696.06;5047112;28;20674;-68
2022/11/02 10:31:27;;;;;;;0.30;0.30;;;;;;;26.46;34.93;99686.81;5049697;28;20777;-68
2022/11/02 10:33:56;;;;;;;0.30;0.30;;;;;;;26.59;35.30;99687.34;5051338;28;20216;-69
2022/11/02 10:36:34;;;;;;;0.20;0.20;;;;;;;26.60;35.56;99670.59;5051497;28;20204;-69
2022/11/02 10:39:12;;;;;;;0.20;0.20;;;;;;;26.74;35.28;99680.69;5050291;28;20562;-69
2022/11/02 10:41:58;;;;;;;0.50;0.50;;;;;;;26.82;34.90;99667.66;5047102;28;20239;-69
2022/11/02 10:44:39;;;;;;;0.30;0.30;;;;;;;26.88;34.68;99661.81;5049649;28;20205;-68
2022/11/02 10:47:14;;;;;;;0.20;0.20;;;;;;;27.13;33.43;99658.56;5049891;28;20232;-69
2022/11/02 10:50:01;;;;;;;0.30;0.30;;;;;;;27.27;33.32;99656.44;5051421;28;20201;-69
2022/11/02 10:52:35;;;;;;;0.13;0.13;;;;;;;27.34;33.33;99652.22;5049102;28;20649;-68
2022/11/02 10:55:02;;;;;;;0.20;0.20;;;;;;;27.46;32.78;99641.41;5052143;28;20207;-68
2022/11/02 10:57:33;;;;;;;0.30;0.30;;;;;;;27.57;32.46;99642.97;5049861;28;20220;-69
2022/11/02 11:00:27;;;;;;;0.60;0.60;;;;;;;27.67;32.54;99637.63;5050231;28;20208;-69
2022/11/02 11:03:09;;;;;;;0.20;0.20;;;;;;;27.68;32.05;99631.41;5048654;28;20716;-68
2022/11/02 11:05:44;;;;;;;0.40;0.40;;;;;;;27.88;31.58;99636.41;5051132;28;20580;-71
2022/11/02 11:08:29;;;;;;;0.20;0.20;;;;;;;27.89;31.55;99622.22;5050732;28;20200;-68
2022/11/02 11:11:13;;;;;;;0.20;0.20;;;;;;;27.97;31.43;99617.03;5048837;28;20706;-68
2022/11/02 11:13:42;;;;;;;0.20;0.20;;;;;;;28.13;31.40;99622.47;5051245;28;20231;-69
2022/11/02 11:16:10;;;;;;;0.20;0.20;;;;;;;28.19;32.34;99612.28;5050736;28;20262;-69
2022/11/02 11:18:37;;;;;;;0.60;0.60;;;;;;;28.23;31.40;99614.47;5051152;28;20204;-69
2022/11/02 11:21:06;;;;;;;0.20;0.20;;;;;;;28.37;30.67;99605.19;5049798;28;20212;-69
2022/11/02 11:23:33;;;;;;;0.20;0.20;;;;;;;28.37;31.50;99599.91;5047754;28;20738;-69
2022/11/02 11:26:01;;;;;;;0.30;0.30;;;;;;;28.40;30.90;99605.69;5051272;28;20217;-69
2022/11/02 11:28:31;;;;;;;0.30;0.30;;;;;;;28.56;29.82;99594.44;5048949;28;20197;-69
2022/11/02 11:31:07;;;;;;;0.20;0.20;;;;;;;28.69;30.70;99600.16;5050523;28;20232;-69
2022/11/02 11:33:43;;;;;;;0.20;0.20;;;;;;;28.75;30.23;99588.97;5049905;28;20204;-69
2022/11/02 11:36:11;;;;;;;0.20;0.20;;;;;;;28.91;28.67;99586.41;5050078;28;20262;-69
2022/11/02 11:38:48;;;;;;;0.20;0.20;;;;;;;28.92;28.08;99584.59;5049697;28;20715;-69
2022/11/02 11:41:15;;;;;;;0.45;0.45;;;;;;;28.96;28.73;99586.75;5049686;28;20443;-69
2022/11/02 11:43:43;;;;;;;0.20;0.20;;;;;;;29.01;26.81;99570.44;5050156;28;20798;-71
2022/11/02 11:46:13;;;;;;;0.40;0.40;;;;;;;29.26;25.99;99581.94;5049276;28;20500;-69
2022/11/02 11:48:44;;;;;;;0.40;0.40;;;;;;;29.35;26.10;99579.16;5051602;28;20208;-69
2022/11/02 11:51:27;;;;;;;0.20;0.20;;;;;;;29.35;25.52;99581.78;5051831;28;20235;-69
2022/11/02 11:54:22;;;;;;;0.20;0.20;;;;;;;29.37;25.96;99573.72;5051728;28;20201;-68
2022/11/02 11:56:51;;;;;;;0.20;0.20;;;;;;;29.42;26.11;99574.03;5052873;28;20254;-68
2022/11/02 11:59:30;;;;;;;0.30;0.30;;;;;;;29.34;25.73;99571.41;5054962;28;20197;-69